sensor_id;sensor_type;location;lat;lon;timestamp;temperature;humidity
12901;DHT22;6518;50.930;5.344;2023-08-08T00:00:51;16.00;90.70
12901;DHT22;6518;50.930;5.344;2023-08-08T00:03:18;16.00;91.00
12901;DHT22;6518;50.930;5.344;2023-08-08T00:05:44;16.00;91.40
12901;DHT22;6518;50.930;5.344;2023-08-08T00:08:11;15.90;91.50
12901;DHT22;6518;50.930;5.344;2023-08-08T00:10:38;15.90;91.80
12901;DHT22;6518;50.930;5.344;2023-08-08T00:13:05;15.90;92.20
12901;DHT22;6518;50.930;5.344;2023-08-08T00:15:34;15.80;92.60
12901;DHT22;6518;50.930;5.344;2023-08-08T00:18:01;15.70;92.90
12901;DHT22;6518;50.930;5.344;2023-08-08T00:20:28;15.70;93.20
12901;DHT22;6518;50.930;5.344;2023-08-08T00:22:54;15.70;93.60
12901;DHT22;6518;50.930;5.344;2023-08-08T00:25:22;15.70;94.00
12901;DHT22;6518;50.930;5.344;2023-08-08T00:27:50;15.70;94.50
12901;DHT22;6518;50.930;5.344;2023-08-08T00:30:17;15.70;95.20
12901;DHT22;6518;50.930;5.344;2023-08-08T00:32:45;15.60;95.60
12901;DHT22;6518;50.930;5.344;2023-08-08T00:35:12;15.60;96.50
12901;DHT22;6518;50.930;5.344;2023-08-08T00:37:39;15.60;96.70
12901;DHT22;6518;50.930;5.344;2023-08-08T00:40:07;15.60;97.50
12901;DHT22;6518;50.930;5.344;2023-08-08T00:42:34;15.50;98.00
12901;DHT22;6518;50.930;5.344;2023-08-08T00:45:03;15.50;98.80
12901;DHT22;6518;50.930;5.344;2023-08-08T00:47:31;15.50;99.40
12901;DHT22;6518;50.930;5.344;2023-08-08T00:50:00;15.50;99.90
12901;DHT22;6518;50.930;5.344;2023-08-08T00:52:28;15.40;99.90
12901;DHT22;6518;50.930;5.344;2023-08-08T00:54:55;15.40;99.90
12901;DHT22;6518;50.930;5.344;2023-08-08T00:57:22;15.40;99.90
12901;DHT22;6518;50.930;5.344;2023-08-08T00:59:49;15.30;99.90
12901;DHT22;6518;50.930;5.344;2023-08-08T01:02:16;15.30;99.90
12901;DHT22;6518;50.930;5.344;2023-08-08T01:04:43;15.30;99.90
12901;DHT22;6518;50.930;5.344;2023-08-08T01:07:20;15.30;99.90
12901;DHT22;6518;50.930;5.344;2023-08-08T01:09:54;15.30;99.90
12901;DHT22;6518;50.930;5.344;2023-08-08T01:12:23;15.50;99.90
12901;DHT22;6518;50.930;5.344;2023-08-08T01:14:52;15.20;99.90
12901;DHT22;6518;50.930;5.344;2023-08-08T01:17:20;15.20;99.90
12901;DHT22;6518;50.930;5.344;2023-08-08T01:19:48;15.20;99.90
12901;DHT22;6518;50.930;5.344;2023-08-08T01:22:23;15.20;99.90
12901;DHT22;6518;50.930;5.344;2023-08-08T01:24:53;15.10;99.90
12901;DHT22;6518;50.930;5.344;2023-08-08T01:27:21;15.10;99.90
12901;DHT22;6518;50.930;5.344;2023-08-08T01:29:48;15.10;99.90
12901;DHT22;6518;50.930;5.344;2023-08-08T01:32:15;15.10;99.90
12901;DHT22;6518;50.930;5.344;2023-08-08T01:34:42;15.00;99.90
12901;DHT22;6518;50.930;5.344;2023-08-08T01:37:13;15.00;99.90
12901;DHT22;6518;50.930;5.344;2023-08-08T01:39:42;14.90;99.90
12901;DHT22;6518;50.930;5.344;2023-08-08T01:42:12;14.90;99.90
12901;DHT22;6518;50.930;5.344;2023-08-08T01:44:41;14.80;99.90
12901;DHT22;6518;50.930;5.344;2023-08-08T01:47:08;14.80;99.90
12901;DHT22;6518;50.930;5.344;2023-08-08T01:49:35;14.80;99.90
12901;DHT22;6518;50.930;5.344;2023-08-08T01:52:03;14.70;99.90
12901;DHT22;6518;50.930;5.344;2023-08-08T01:54:31;14.70;99.90
12901;DHT22;6518;50.930;5.344;2023-08-08T01:56:58;14.70;99.90
12901;DHT22;6518;50.930;5.344;2023-08-08T01:59:26;14.70;99.90
12901;DHT22;6518;50.930;5.344;2023-08-08T02:01:53;14.70;99.90
12901;DHT22;6518;50.930;5.344;2023-08-08T02:04:20;14.60;99.90
12901;DHT22;6518;50.930;5.344;2023-08-08T02:06:47;14.60;99.90
12901;DHT22;6518;50.930;5.344;2023-08-08T02:09:14;14.60;99.90
12901;DHT22;6518;50.930;5.344;2023-08-08T02:11:41;14.60;99.90
12901;DHT22;6518;50.930;5.344;2023-08-08T02:14:08;14.60;99.90
12901;DHT22;6518;50.930;5.344;2023-08-08T02:16:36;14.70;99.90
12901;DHT22;6518;50.930;5.344;2023-08-08T02:19:05;14.60;99.90
12901;DHT22;6518;50.930;5.344;2023-08-08T02:21:32;14.70;99.90
12901;DHT22;6518;50.930;5.344;2023-08-08T02:23:59;14.70;99.90
12901;DHT22;6518;50.930;5.344;2023-08-08T02:26:26;14.70;99.90
12901;DHT22;6518;50.930;5.344;2023-08-08T02:28:53;14.70;99.90
12901;DHT22;6518;50.930;5.344;2023-08-08T02:31:20;14.70;99.90
12901;DHT22;6518;50.930;5.344;2023-08-08T02:33:49;14.60;99.90
12901;DHT22;6518;50.930;5.344;2023-08-08T02:36:16;14.60;99.90
12901;DHT22;6518;50.930;5.344;2023-08-08T02:38:44;14.60;99.90
12901;DHT22;6518;50.930;5.344;2023-08-08T02:41:11;14.60;99.90
12901;DHT22;6518;50.930;5.344;2023-08-08T02:43:37;14.60;99.90
12901;DHT22;6518;50.930;5.344;2023-08-08T02:46:04;14.60;99.90
12901;DHT22;6518;50.930;5.344;2023-08-08T02:48:31;14.60;99.90
12901;DHT22;6518;50.930;5.344;2023-08-08T02:50:59;14.50;99.90
12901;DHT22;6518;50.930;5.344;2023-08-08T02:53:26;14.50;99.90
12901;DHT22;6518;50.930;5.344;2023-08-08T02:55:53;14.50;99.90
12901;DHT22;6518;50.930;5.344;2023-08-08T02:58:21;14.40;99.90
12901;DHT22;6518;50.930;5.344;2023-08-08T03:00:48;14.40;99.90
12901;DHT22;6518;50.930;5.344;2023-08-08T03:03:15;14.40;99.90
12901;DHT22;6518;50.930;5.344;2023-08-08T03:05:44;14.40;99.90
12901;DHT22;6518;50.930;5.344;2023-08-08T03:08:13;14.40;99.90
12901;DHT22;6518;50.930;5.344;2023-08-08T03:10:40;14.40;99.90
12901;DHT22;6518;50.930;5.344;2023-08-08T03:13:07;14.40;99.90
12901;DHT22;6518;50.930;5.344;2023-08-08T03:15:34;14.40;99.90
12901;DHT22;6518;50.930;5.344;2023-08-08T03:18:01;14.40;99.90
12901;DHT22;6518;50.930;5.344;2023-08-08T03:20:29;14.30;99.90
12901;DHT22;6518;50.930;5.344;2023-08-08T03:22:56;14.30;99.90
12901;DHT22;6518;50.930;5.344;2023-08-08T03:25:25;14.30;99.90
12901;DHT22;6518;50.930;5.344;2023-08-08T03:27:52;14.30;99.90
12901;DHT22;6518;50.930;5.344;2023-08-08T03:30:19;14.30;99.90
12901;DHT22;6518;50.930;5.344;2023-08-08T03:32:46;14.30;99.90
12901;DHT22;6518;50.930;5.344;2023-08-08T03:35:14;14.30;99.90
12901;DHT22;6518;50.930;5.344;2023-08-08T03:37:41;14.30;99.90
12901;DHT22;6518;50.930;5.344;2023-08-08T03:40:09;14.30;99.90
12901;DHT22;6518;50.930;5.344;2023-08-08T03:42:37;14.30;99.90
12901;DHT22;6518;50.930;5.344;2023-08-08T03:45:06;14.20;99.90
12901;DHT22;6518;50.930;5.344;2023-08-08T03:47:33;14.20;99.90
12901;DHT22;6518;50.930;5.344;2023-08-08T03:50:00;14.20;99.90
12901;DHT22;6518;50.930;5.344;2023-08-08T03:52:27;14.20;99.90
12901;DHT22;6518;50.930;5.344;2023-08-08T03:54:54;14.20;99.90
12901;DHT22;6518;50.930;5.344;2023-08-08T03:57:22;14.20;99.90
12901;DHT22;6518;50.930;5.344;2023-08-08T03:59:50;14.20;99.90
12901;DHT22;6518;50.930;5.344;2023-08-08T04:02:17;14.10;99.90
12901;DHT22;6518;50.930;5.344;2023-08-08T04:04:45;14.10;99.90
12901;DHT22;6518;50.930;5.344;2023-08-08T04:07:12;14.10;99.90
12901;DHT22;6518;50.930;5.344;2023-08-08T04:09:39;14.10;99.90
12901;DHT22;6518;50.930;5.344;2023-08-08T04:12:08;14.10;99.90
12901;DHT22;6518;50.930;5.344;2023-08-08T04:14:35;14.10;99.90
12901;DHT22;6518;50.930;5.344;2023-08-08T04:17:05;14.10;99.90
12901;DHT22;6518;50.930;5.344;2023-08-08T04:19:32;14.10;99.90
12901;DHT22;6518;50.930;5.344;2023-08-08T04:21:59;14.10;99.90
12901;DHT22;6518;50.930;5.344;2023-08-08T04:24:26;14.10;99.90
12901;DHT22;6518;50.930;5.344;2023-08-08T04:26:53;14.10;99.90
12901;DHT22;6518;50.930;5.344;2023-08-08T04:29:20;14.10;99.90
12901;DHT22;6518;50.930;5.344;2023-08-08T04:31:47;14.10;99.90
12901;DHT22;6518;50.930;5.344;2023-08-08T04:34:15;14.10;99.90
12901;DHT22;6518;50.930;5.344;2023-08-08T04:36:42;14.10;99.90
12901;DHT22;6518;50.930;5.344;2023-08-08T04:39:09;14.10;99.90
12901;DHT22;6518;50.930;5.344;2023-08-08T04:41:36;14.10;99.90
12901;DHT22;6518;50.930;5.344;2023-08-08T04:44:03;14.10;99.90
12901;DHT22;6518;50.930;5.344;2023-08-08T04:46:30;14.10;99.90
12901;DHT22;6518;50.930;5.344;2023-08-08T04:48:57;14.10;99.90
12901;DHT22;6518;50.930;5.344;2023-08-08T04:51:26;14.10;99.90
12901;DHT22;6518;50.930;5.344;2023-08-08T04:53:53;14.10;99.90
12901;DHT22;6518;50.930;5.344;2023-08-08T04:56:22;14.10;99.90
12901;DHT22;6518;50.930;5.344;2023-08-08T04:58:49;14.10;99.90
12901;DHT22;6518;50.930;5.344;2023-08-08T05:01:16;14.20;99.90
12901;DHT22;6518;50.930;5.344;2023-08-08T05:03:46;14.20;99.90
12901;DHT22;6518;50.930;5.344;2023-08-08T05:06:12;14.20;99.90
12901;DHT22;6518;50.930;5.344;2023-08-08T05:08:41;14.10;99.90
12901;DHT22;6518;50.930;5.344;2023-08-08T05:11:08;14.20;99.90
12901;DHT22;6518;50.930;5.344;2023-08-08T05:13:35;14.30;99.90
12901;DHT22;6518;50.930;5.344;2023-08-08T05:16:02;14.30;99.90
12901;DHT22;6518;50.930;5.344;2023-08-08T05:18:29;14.30;99.90
12901;DHT22;6518;50.930;5.344;2023-08-08T05:20:56;14.30;99.90
12901;DHT22;6518;50.930;5.344;2023-08-08T05:23:23;14.40;99.90
12901;DHT22;6518;50.930;5.344;2023-08-08T05:25:51;14.40;99.90
12901;DHT22;6518;50.930;5.344;2023-08-08T05:28:18;14.40;99.90
12901;DHT22;6518;50.930;5.344;2023-08-08T05:30:46;14.40;99.90
12901;DHT22;6518;50.930;5.344;2023-08-08T05:33:13;14.50;99.90
12901;DHT22;6518;50.930;5.344;2023-08-08T05:35:40;14.50;99.90
12901;DHT22;6518;50.930;5.344;2023-08-08T05:38:07;14.50;99.90
12901;DHT22;6518;50.930;5.344;2023-08-08T05:40:34;14.50;99.90
12901;DHT22;6518;50.930;5.344;2023-08-08T05:43:03;14.60;99.90
12901;DHT22;6518;50.930;5.344;2023-08-08T05:45:30;14.60;99.90
12901;DHT22;6518;50.930;5.344;2023-08-08T05:47:57;14.70;99.90
12901;DHT22;6518;50.930;5.344;2023-08-08T05:50:26;14.70;99.90
12901;DHT22;6518;50.930;5.344;2023-08-08T05:52:54;14.80;99.90
12901;DHT22;6518;50.930;5.344;2023-08-08T05:55:20;14.90;99.90
12901;DHT22;6518;50.930;5.344;2023-08-08T05:57:47;14.90;99.90
12901;DHT22;6518;50.930;5.344;2023-08-08T06:00:16;15.00;99.90
12901;DHT22;6518;50.930;5.344;2023-08-08T06:02:44;15.00;99.90
12901;DHT22;6518;50.930;5.344;2023-08-08T06:05:11;15.00;99.90
12901;DHT22;6518;50.930;5.344;2023-08-08T06:07:38;15.10;99.90
12901;DHT22;6518;50.930;5.344;2023-08-08T06:10:06;15.10;99.90
12901;DHT22;6518;50.930;5.344;2023-08-08T06:12:33;15.10;99.90
12901;DHT22;6518;50.930;5.344;2023-08-08T06:15:00;15.10;99.90
12901;DHT22;6518;50.930;5.344;2023-08-08T06:17:29;15.20;99.90
12901;DHT22;6518;50.930;5.344;2023-08-08T06:19:56;15.20;99.90
12901;DHT22;6518;50.930;5.344;2023-08-08T06:22:23;15.20;99.90
12901;DHT22;6518;50.930;5.344;2023-08-08T06:24:50;15.20;99.90
12901;DHT22;6518;50.930;5.344;2023-08-08T06:27:17;15.30;99.90
12901;DHT22;6518;50.930;5.344;2023-08-08T06:29:44;15.30;99.90
12901;DHT22;6518;50.930;5.344;2023-08-08T06:32:11;15.40;99.90
12901;DHT22;6518;50.930;5.344;2023-08-08T06:34:40;15.40;99.90
12901;DHT22;6518;50.930;5.344;2023-08-08T06:37:07;15.50;99.90
12901;DHT22;6518;50.930;5.344;2023-08-08T06:39:34;15.60;99.90
12901;DHT22;6518;50.930;5.344;2023-08-08T06:42:04;15.70;99.90
12901;DHT22;6518;50.930;5.344;2023-08-08T06:44:32;15.80;99.90
12901;DHT22;6518;50.930;5.344;2023-08-08T06:46:59;15.90;99.90
12901;DHT22;6518;50.930;5.344;2023-08-08T06:49:26;15.90;99.90
12901;DHT22;6518;50.930;5.344;2023-08-08T06:51:55;16.10;99.90
12901;DHT22;6518;50.930;5.344;2023-08-08T06:54:22;16.20;99.90
12901;DHT22;6518;50.930;5.344;2023-08-08T06:56:50;16.30;99.90
12901;DHT22;6518;50.930;5.344;2023-08-08T06:59:16;16.40;99.90
12901;DHT22;6518;50.930;5.344;2023-08-08T07:01:44;16.50;99.90
12901;DHT22;6518;50.930;5.344;2023-08-08T07:04:11;16.50;99.90
12901;DHT22;6518;50.930;5.344;2023-08-08T07:06:38;16.60;99.90
12901;DHT22;6518;50.930;5.344;2023-08-08T07:09:07;16.70;99.90
12901;DHT22;6518;50.930;5.344;2023-08-08T07:11:36;16.70;99.90
12901;DHT22;6518;50.930;5.344;2023-08-08T07:14:03;16.60;99.90
12901;DHT22;6518;50.930;5.344;2023-08-08T07:16:31;16.50;99.90
12901;DHT22;6518;50.930;5.344;2023-08-08T07:18:58;16.50;99.90
12901;DHT22;6518;50.930;5.344;2023-08-08T07:21:25;16.40;99.90
12901;DHT22;6518;50.930;5.344;2023-08-08T07:23:53;16.40;99.90
12901;DHT22;6518;50.930;5.344;2023-08-08T07:26:22;16.40;99.90
12901;DHT22;6518;50.930;5.344;2023-08-08T07:28:49;16.40;99.90
12901;DHT22;6518;50.930;5.344;2023-08-08T07:31:16;16.40;99.90
12901;DHT22;6518;50.930;5.344;2023-08-08T07:33:42;16.40;99.90
12901;DHT22;6518;50.930;5.344;2023-08-08T07:36:09;16.50;99.90
12901;DHT22;6518;50.930;5.344;2023-08-08T07:38:36;16.50;99.90
12901;DHT22;6518;50.930;5.344;2023-08-08T07:41:04;16.60;99.90
12901;DHT22;6518;50.930;5.344;2023-08-08T07:43:32;16.60;99.90
12901;DHT22;6518;50.930;5.344;2023-08-08T07:45:59;16.60;99.90
12901;DHT22;6518;50.930;5.344;2023-08-08T07:48:26;16.60;99.90
12901;DHT22;6518;50.930;5.344;2023-08-08T07:50:53;16.70;99.90
12901;DHT22;6518;50.930;5.344;2023-08-08T07:53:20;16.70;99.90
12901;DHT22;6518;50.930;5.344;2023-08-08T07:55:47;16.80;99.90
12901;DHT22;6518;50.930;5.344;2023-08-08T07:58:14;17.00;99.90
12901;DHT22;6518;50.930;5.344;2023-08-08T08:00:42;17.10;99.90
12901;DHT22;6518;50.930;5.344;2023-08-08T08:03:10;17.30;99.90
12901;DHT22;6518;50.930;5.344;2023-08-08T08:05:37;17.40;99.90
12901;DHT22;6518;50.930;5.344;2023-08-08T08:08:04;17.50;99.90
12901;DHT22;6518;50.930;5.344;2023-08-08T08:10:31;17.60;99.90
12901;DHT22;6518;50.930;5.344;2023-08-08T08:12:58;17.60;99.90
12901;DHT22;6518;50.930;5.344;2023-08-08T08:15:25;17.60;99.90
12901;DHT22;6518;50.930;5.344;2023-08-08T08:17:54;17.60;99.90
12901;DHT22;6518;50.930;5.344;2023-08-08T08:20:21;17.70;99.90
12901;DHT22;6518;50.930;5.344;2023-08-08T08:22:48;17.70;99.90
12901;DHT22;6518;50.930;5.344;2023-08-08T08:25:15;17.80;99.90
12901;DHT22;6518;50.930;5.344;2023-08-08T08:27:42;17.80;99.90
12901;DHT22;6518;50.930;5.344;2023-08-08T08:30:10;17.80;99.90
12901;DHT22;6518;50.930;5.344;2023-08-08T08:32:38;17.90;99.90
12901;DHT22;6518;50.930;5.344;2023-08-08T08:35:08;17.90;99.90
12901;DHT22;6518;50.930;5.344;2023-08-08T08:37:35;17.60;99.90
12901;DHT22;6518;50.930;5.344;2023-08-08T08:40:02;18.10;99.90
12901;DHT22;6518;50.930;5.344;2023-08-08T08:42:32;18.10;99.90
12901;DHT22;6518;50.930;5.344;2023-08-08T08:45:02;18.10;99.90
12901;DHT22;6518;50.930;5.344;2023-08-08T08:47:30;18.20;99.90
12901;DHT22;6518;50.930;5.344;2023-08-08T08:49:58;18.10;99.90
12901;DHT22;6518;50.930;5.344;2023-08-08T08:52:28;18.20;99.90
12901;DHT22;6518;50.930;5.344;2023-08-08T08:54:55;18.20;99.90
12901;DHT22;6518;50.930;5.344;2023-08-08T08:57:23;18.20;99.90
12901;DHT22;6518;50.930;5.344;2023-08-08T08:59:50;18.30;99.90
12901;DHT22;6518;50.930;5.344;2023-08-08T09:02:18;18.30;99.90
12901;DHT22;6518;50.930;5.344;2023-08-08T09:04:45;18.30;99.90
12901;DHT22;6518;50.930;5.344;2023-08-08T09:07:12;18.40;99.90
12901;DHT22;6518;50.930;5.344;2023-08-08T09:09:43;18.50;99.90
12901;DHT22;6518;50.930;5.344;2023-08-08T09:12:11;18.50;99.90
12901;DHT22;6518;50.930;5.344;2023-08-08T09:14:40;18.60;99.90
12901;DHT22;6518;50.930;5.344;2023-08-08T09:17:11;18.70;99.40
12901;DHT22;6518;50.930;5.344;2023-08-08T09:19:42;18.80;97.70
12901;DHT22;6518;50.930;5.344;2023-08-08T09:22:09;18.80;96.30
12901;DHT22;6518;50.930;5.344;2023-08-08T09:24:38;18.80;96.30
12901;DHT22;6518;50.930;5.344;2023-08-08T09:27:07;18.80;95.80
12901;DHT22;6518;50.930;5.344;2023-08-08T09:29:35;18.70;94.90
12901;DHT22;6518;50.930;5.344;2023-08-08T09:32:03;18.60;94.20
12901;DHT22;6518;50.930;5.344;2023-08-08T09:34:30;18.60;94.80
12901;DHT22;6518;50.930;5.344;2023-08-08T09:36:58;18.60;93.50
12901;DHT22;6518;50.930;5.344;2023-08-08T09:39:25;18.80;93.70
12901;DHT22;6518;50.930;5.344;2023-08-08T09:41:52;18.80;93.30
12901;DHT22;6518;50.930;5.344;2023-08-08T09:44:25;18.90;93.10
12901;DHT22;6518;50.930;5.344;2023-08-08T09:46:55;19.10;92.00
12901;DHT22;6518;50.930;5.344;2023-08-08T09:49:22;19.10;91.20
12901;DHT22;6518;50.930;5.344;2023-08-08T09:51:50;19.10;91.40
12901;DHT22;6518;50.930;5.344;2023-08-08T09:54:17;19.10;91.50
12901;DHT22;6518;50.930;5.344;2023-08-08T09:56:44;19.20;92.20
12901;DHT22;6518;50.930;5.344;2023-08-08T09:59:12;19.30;91.60
12901;DHT22;6518;50.930;5.344;2023-08-08T10:01:41;19.40;91.50
12901;DHT22;6518;50.930;5.344;2023-08-08T10:04:11;19.40;90.50
12901;DHT22;6518;50.930;5.344;2023-08-08T10:06:38;19.40;90.60
12901;DHT22;6518;50.930;5.344;2023-08-08T10:09:05;19.50;90.30
12901;DHT22;6518;50.930;5.344;2023-08-08T10:11:33;19.40;90.00
12901;DHT22;6518;50.930;5.344;2023-08-08T10:14:02;19.40;90.10
12901;DHT22;6518;50.930;5.344;2023-08-08T10:16:32;19.50;89.70
12901;DHT22;6518;50.930;5.344;2023-08-08T10:19:02;19.50;89.50
12901;DHT22;6518;50.930;5.344;2023-08-08T10:21:33;19.70;88.40
12901;DHT22;6518;50.930;5.344;2023-08-08T10:24:04;19.70;87.50
12901;DHT22;6518;50.930;5.344;2023-08-08T10:26:32;19.70;87.40
12901;DHT22;6518;50.930;5.344;2023-08-08T10:29:00;19.60;86.90
12901;DHT22;6518;50.930;5.344;2023-08-08T10:31:33;19.50;87.80
12901;DHT22;6518;50.930;5.344;2023-08-08T10:34:05;19.60;88.40
12901;DHT22;6518;50.930;5.344;2023-08-08T10:36:48;19.50;88.20
12901;DHT22;6518;50.930;5.344;2023-08-08T10:39:17;19.50;87.50
12901;DHT22;6518;50.930;5.344;2023-08-08T10:41:45;19.40;87.30
12901;DHT22;6518;50.930;5.344;2023-08-08T10:44:12;19.30;86.60
12901;DHT22;6518;50.930;5.344;2023-08-08T10:46:41;19.30;86.60
12901;DHT22;6518;50.930;5.344;2023-08-08T10:49:12;19.20;87.40
12901;DHT22;6518;50.930;5.344;2023-08-08T10:51:42;19.00;86.70
12901;DHT22;6518;50.930;5.344;2023-08-08T10:54:13;18.90;87.50
12901;DHT22;6518;50.930;5.344;2023-08-08T10:56:40;18.90;87.90
12901;DHT22;6518;50.930;5.344;2023-08-08T10:59:14;18.80;88.10
12901;DHT22;6518;50.930;5.344;2023-08-08T11:01:45;18.90;87.70
12901;DHT22;6518;50.930;5.344;2023-08-08T11:04:15;18.80;88.10
12901;DHT22;6518;50.930;5.344;2023-08-08T11:06:42;18.80;87.40
12901;DHT22;6518;50.930;5.344;2023-08-08T11:09:10;18.90;87.50
12901;DHT22;6518;50.930;5.344;2023-08-08T11:11:38;19.10;87.50
12901;DHT22;6518;50.930;5.344;2023-08-08T11:14:12;19.10;86.40
12901;DHT22;6518;50.930;5.344;2023-08-08T11:16:40;19.20;85.80
12901;DHT22;6518;50.930;5.344;2023-08-08T11:19:07;19.20;85.60
12901;DHT22;6518;50.930;5.344;2023-08-08T11:21:39;19.30;86.40
12901;DHT22;6518;50.930;5.344;2023-08-08T11:24:07;19.30;86.30
12901;DHT22;6518;50.930;5.344;2023-08-08T11:26:34;19.30;85.40
12901;DHT22;6518;50.930;5.344;2023-08-08T11:29:03;19.30;85.10
12901;DHT22;6518;50.930;5.344;2023-08-08T11:31:34;19.30;84.20
12901;DHT22;6518;50.930;5.344;2023-08-08T11:34:01;19.20;83.50
12901;DHT22;6518;50.930;5.344;2023-08-08T11:36:30;19.00;83.20
12901;DHT22;6518;50.930;5.344;2023-08-08T11:39:01;18.90;83.40
12901;DHT22;6518;50.930;5.344;2023-08-08T11:41:31;18.80;83.70
12901;DHT22;6518;50.930;5.344;2023-08-08T11:43:58;18.80;84.40
12901;DHT22;6518;50.930;5.344;2023-08-08T11:46:26;19.60;84.70
12901;DHT22;6518;50.930;5.344;2023-08-08T11:48:53;18.80;84.10
12901;DHT22;6518;50.930;5.344;2023-08-08T11:51:19;18.70;84.40
12901;DHT22;6518;50.930;5.344;2023-08-08T11:53:51;18.60;84.50
12901;DHT22;6518;50.930;5.344;2023-08-08T11:56:20;18.60;85.20
12901;DHT22;6518;50.930;5.344;2023-08-08T11:58:50;18.50;85.40
12901;DHT22;6518;50.930;5.344;2023-08-08T12:01:19;18.50;85.40
12901;DHT22;6518;50.930;5.344;2023-08-08T12:03:47;18.50;85.20
12901;DHT22;6518;50.930;5.344;2023-08-08T12:06:14;18.60;85.20
12901;DHT22;6518;50.930;5.344;2023-08-08T12:08:42;18.70;85.60
12901;DHT22;6518;50.930;5.344;2023-08-08T12:11:10;19.00;85.40
12901;DHT22;6518;50.930;5.344;2023-08-08T12:13:41;19.20;84.80
12901;DHT22;6518;50.930;5.344;2023-08-08T12:16:09;19.40;84.30
12901;DHT22;6518;50.930;5.344;2023-08-08T12:18:37;19.50;83.50
12901;DHT22;6518;50.930;5.344;2023-08-08T12:21:04;19.70;82.80
12901;DHT22;6518;50.930;5.344;2023-08-08T12:23:31;19.70;83.00
12901;DHT22;6518;50.930;5.344;2023-08-08T12:25:59;19.70;82.60
12901;DHT22;6518;50.930;5.344;2023-08-08T12:28:26;19.80;82.70
12901;DHT22;6518;50.930;5.344;2023-08-08T12:30:54;19.90;82.10
12901;DHT22;6518;50.930;5.344;2023-08-08T12:33:21;20.00;81.40
12901;DHT22;6518;50.930;5.344;2023-08-08T12:35:49;20.00;80.90
12901;DHT22;6518;50.930;5.344;2023-08-08T12:38:16;20.00;80.90
12901;DHT22;6518;50.930;5.344;2023-08-08T12:40:43;20.10;81.40
12901;DHT22;6518;50.930;5.344;2023-08-08T12:43:10;20.20;81.70
12901;DHT22;6518;50.930;5.344;2023-08-08T12:45:39;20.30;80.00
12901;DHT22;6518;50.930;5.344;2023-08-08T12:48:08;20.40;78.40
12901;DHT22;6518;50.930;5.344;2023-08-08T12:50:35;20.50;77.70
12901;DHT22;6518;50.930;5.344;2023-08-08T12:53:02;20.60;78.40
12901;DHT22;6518;50.930;5.344;2023-08-08T12:55:29;20.60;76.40
12901;DHT22;6518;50.930;5.344;2023-08-08T12:57:56;20.70;75.50
12901;DHT22;6518;50.930;5.344;2023-08-08T13:00:23;20.70;74.80
12901;DHT22;6518;50.930;5.344;2023-08-08T13:02:51;20.70;73.90
12901;DHT22;6518;50.930;5.344;2023-08-08T13:05:19;20.70;72.50
12901;DHT22;6518;50.930;5.344;2023-08-08T13:07:47;20.60;70.60
12901;DHT22;6518;50.930;5.344;2023-08-08T13:10:14;20.50;69.90
12901;DHT22;6518;50.930;5.344;2023-08-08T13:12:41;20.40;70.50
12901;DHT22;6518;50.930;5.344;2023-08-08T13:15:09;20.40;70.80
12901;DHT22;6518;50.930;5.344;2023-08-08T13:17:36;20.40;71.60
12901;DHT22;6518;50.930;5.344;2023-08-08T13:20:04;20.40;71.10
12901;DHT22;6518;50.930;5.344;2023-08-08T13:22:34;20.40;70.80
12901;DHT22;6518;50.930;5.344;2023-08-08T13:25:02;20.40;71.40
12901;DHT22;6518;50.930;5.344;2023-08-08T13:27:30;20.40;71.90
12901;DHT22;6518;50.930;5.344;2023-08-08T13:29:58;20.50;71.90
12901;DHT22;6518;50.930;5.344;2023-08-08T13:32:25;20.60;71.50
12901;DHT22;6518;50.930;5.344;2023-08-08T13:34:52;20.60;71.50
12901;DHT22;6518;50.930;5.344;2023-08-08T13:37:19;20.80;72.30
12901;DHT22;6518;50.930;5.344;2023-08-08T13:39:48;21.00;72.30
12901;DHT22;6518;50.930;5.344;2023-08-08T13:42:15;21.10;71.20
12901;DHT22;6518;50.930;5.344;2023-08-08T13:44:42;21.30;70.20
12901;DHT22;6518;50.930;5.344;2023-08-08T13:47:09;21.30;69.80
12901;DHT22;6518;50.930;5.344;2023-08-08T13:49:37;21.30;69.10
12901;DHT22;6518;50.930;5.344;2023-08-08T13:52:04;21.30;68.80
12901;DHT22;6518;50.930;5.344;2023-08-08T13:54:32;21.20;68.10
12901;DHT22;6518;50.930;5.344;2023-08-08T13:57:01;21.10;68.40
12901;DHT22;6518;50.930;5.344;2023-08-08T13:59:28;21.00;69.30
12901;DHT22;6518;50.930;5.344;2023-08-08T14:01:55;20.90;69.30
12901;DHT22;6518;50.930;5.344;2023-08-08T14:04:22;20.80;68.70
12901;DHT22;6518;50.930;5.344;2023-08-08T14:06:49;20.60;69.10
12901;DHT22;6518;50.930;5.344;2023-08-08T14:09:16;20.60;70.00
12901;DHT22;6518;50.930;5.344;2023-08-08T14:11:43;20.70;70.30
12901;DHT22;6518;50.930;5.344;2023-08-08T14:14:13;20.70;70.30
12901;DHT22;6518;50.930;5.344;2023-08-08T14:16:40;20.70;70.20
12901;DHT22;6518;50.930;5.344;2023-08-08T14:19:07;20.70;70.20
12901;DHT22;6518;50.930;5.344;2023-08-08T14:21:34;20.70;70.50
12901;DHT22;6518;50.930;5.344;2023-08-08T14:24:02;20.70;70.10
12901;DHT22;6518;50.930;5.344;2023-08-08T14:26:29;20.60;69.70
12901;DHT22;6518;50.930;5.344;2023-08-08T14:28:57;20.50;70.00
12901;DHT22;6518;50.930;5.344;2023-08-08T14:31:25;20.40;70.30
12901;DHT22;6518;50.930;5.344;2023-08-08T14:33:52;20.50;71.10
12901;DHT22;6518;50.930;5.344;2023-08-08T14:36:19;20.70;71.20
12901;DHT22;6518;50.930;5.344;2023-08-08T14:38:46;20.80;70.90
12901;DHT22;6518;50.930;5.344;2023-08-08T14:41:13;20.90;69.40
12901;DHT22;6518;50.930;5.344;2023-08-08T14:43:40;21.00;70.10
12901;DHT22;6518;50.930;5.344;2023-08-08T14:46:07;21.10;70.00
12901;DHT22;6518;50.930;5.344;2023-08-08T14:48:35;21.10;69.50
12901;DHT22;6518;50.930;5.344;2023-08-08T14:51:02;21.10;69.90
12901;DHT22;6518;50.930;5.344;2023-08-08T14:53:30;21.20;70.20
12901;DHT22;6518;50.930;5.344;2023-08-08T14:55:57;21.10;69.40
12901;DHT22;6518;50.930;5.344;2023-08-08T14:58:24;21.00;70.10
12901;DHT22;6518;50.930;5.344;2023-08-08T15:00:51;21.00;70.60
12901;DHT22;6518;50.930;5.344;2023-08-08T15:03:18;21.20;70.40
12901;DHT22;6518;50.930;5.344;2023-08-08T15:05:47;21.40;69.20
12901;DHT22;6518;50.930;5.344;2023-08-08T15:08:14;21.40;68.20
12901;DHT22;6518;50.930;5.344;2023-08-08T15:10:41;21.50;68.60
12901;DHT22;6518;50.930;5.344;2023-08-08T15:13:08;21.60;68.10
12901;DHT22;6518;50.930;5.344;2023-08-08T15:15:35;21.70;67.60
12901;DHT22;6518;50.930;5.344;2023-08-08T15:18:02;21.70;66.90
12901;DHT22;6518;50.930;5.344;2023-08-08T15:20:29;21.70;66.50
12901;DHT22;6518;50.930;5.344;2023-08-08T15:22:57;21.60;66.30
12901;DHT22;6518;50.930;5.344;2023-08-08T15:25:24;21.60;67.00
12901;DHT22;6518;50.930;5.344;2023-08-08T15:27:51;21.70;66.90
12901;DHT22;6518;50.930;5.344;2023-08-08T15:30:18;21.70;66.80
12901;DHT22;6518;50.930;5.344;2023-08-08T15:32:45;21.70;66.70
12901;DHT22;6518;50.930;5.344;2023-08-08T15:35:12;21.70;66.40
12901;DHT22;6518;50.930;5.344;2023-08-08T15:37:39;21.60;67.30
12901;DHT22;6518;50.930;5.344;2023-08-08T15:40:08;21.50;66.50
12901;DHT22;6518;50.930;5.344;2023-08-08T15:42:37;21.30;67.00
12901;DHT22;6518;50.930;5.344;2023-08-08T15:45:06;21.10;67.20
12901;DHT22;6518;50.930;5.344;2023-08-08T15:47:34;20.80;67.90